createdAt,value
2023-03-13T00:00:23.354Z,2.93
2023-03-13T00:05:26.459Z,3.00
2023-03-13T00:10:31.230Z,4.83
2023-03-13T00:15:34.658Z,5.83
2023-03-13T00:20:37.743Z,4.70
2023-03-13T00:25:42.184Z,3.43
2023-03-13T00:30:45.409Z,6.27
2023-03-13T00:35:48.686Z,5.50
2023-03-13T00:41:00.473Z,7.60
2023-03-13T00:46:03.874Z,6.03
2023-03-13T00:51:08.903Z,9.23
2023-03-13T00:56:15.095Z,6.30
2023-03-13T01:01:19.860Z,3.97
2023-03-13T01:06:24.547Z,5.60
2023-03-13T01:11:30.829Z,6.20
2023-03-13T01:16:35.545Z,10.03
2023-03-13T01:21:38.805Z,5.87
2023-03-13T01:26:43.733Z,6.37
2023-03-13T01:31:46.829Z,7.10
2023-03-13T01:36:52.487Z,7.83
2023-03-13T01:41:57.016Z,5.23
2023-03-13T01:47:02.063Z,7.07
2023-03-13T01:52:32.009Z,6.60
2023-03-13T01:57:53.809Z,5.53
2023-03-13T02:03:03.096Z,6.23
2023-03-13T02:08:10.718Z,3.63
2023-03-13T02:13:18.773Z,4.47
2023-03-13T02:18:21.900Z,5.33
2023-03-13T02:23:32.400Z,3.43
2023-03-13T02:28:39.307Z,3.90
2023-03-13T02:33:46.422Z,2.77
2023-03-13T02:38:57.869Z,2.73
2023-03-13T02:44:03.103Z,2.93
2023-03-13T02:49:21.213Z,3.07
2023-03-13T02:54:27.576Z,3.20
2023-03-13T02:59:32.236Z,1.77
2023-03-13T03:04:35.572Z,1.50
2023-03-13T03:09:38.902Z,1.40
2023-03-13T03:14:48.701Z,1.87
2023-03-13T03:19:53.041Z,1.90
2023-03-13T03:24:57.114Z,2.20
2023-03-13T03:30:02.472Z,1.03
2023-03-13T03:35:07.285Z,0.70
2023-03-13T03:40:12.339Z,0.63
2023-03-13T03:45:17.438Z,0.53
2023-03-13T03:50:20.646Z,0.80
2023-03-13T03:55:35.009Z,1.27
2023-03-13T04:00:40.383Z,1.27
2023-03-13T04:05:44.237Z,0.40
2023-03-13T04:10:48.305Z,0.50
2023-03-13T04:15:53.546Z,0.73
2023-03-13T04:21:02.583Z,0.30
2023-03-13T04:26:08.327Z,0.20
2023-03-13T04:31:13.873Z,0.60
2023-03-13T04:36:23.020Z,0.77
2023-03-13T04:41:40.118Z,0.20
2023-03-13T04:46:56.394Z,0.70
2023-03-13T04:52:18.165Z,0.30
2023-03-13T04:57:34.793Z,0.10
2023-03-13T05:02:50.388Z,0.43
2023-03-13T05:08:31.843Z,0.27
2023-03-13T05:13:55.679Z,0.10
2023-03-13T05:19:18.528Z,0.20
2023-03-13T05:24:41.862Z,0.20
2023-03-13T05:30:08.889Z,0.10
2023-03-13T05:35:29.669Z,0.10
2023-03-13T05:40:58.907Z,0.07
2023-03-13T05:46:28.110Z,0.10
2023-03-13T05:51:55.522Z,0.10
2023-03-13T05:57:19.070Z,0.10
2023-03-13T06:02:32.102Z,0.13
2023-03-13T06:07:37.574Z,0.63
2023-03-13T06:12:40.753Z,0.37
2023-03-13T06:17:47.436Z,0.30
2023-03-13T06:22:51.970Z,0.43
2023-03-13T06:27:55.021Z,0.10
2023-03-13T06:32:59.930Z,0.20
2023-03-13T06:38:04.470Z,0.20
2023-03-13T06:43:07.613Z,0.20
2023-03-13T06:48:10.745Z,0.10
2023-03-13T06:53:17.796Z,0.50
2023-03-13T06:58:31.777Z,1.80
2023-03-13T07:03:36.314Z,0.60
2023-03-13T07:08:41.478Z,0.50
2023-03-13T07:13:44.789Z,0.30
2023-03-13T07:18:47.865Z,1.03
2023-03-13T07:23:52.566Z,0.60
2023-03-13T07:28:57.291Z,0.47
2023-03-13T07:34:01.162Z,0.60
2023-03-13T07:39:05.586Z,0.90
2023-03-13T07:44:09.280Z,0.60
2023-03-13T07:49:12.680Z,1.70
2023-03-13T07:54:17.848Z,1.33
2023-03-13T07:59:21.156Z,1.27
2023-03-13T08:04:24.523Z,0.70
2023-03-13T08:09:29.201Z,1.03
2023-03-13T08:14:32.417Z,0.80
2023-03-13T08:19:35.526Z,2.40
2023-03-13T08:24:40.242Z,1.50
2023-03-13T08:29:43.358Z,1.30
2023-03-13T08:34:46.660Z,1.43
2023-03-13T08:39:51.200Z,0.97
2023-03-13T08:44:54.474Z,5.17
2023-03-13T08:49:58.126Z,4.33
2023-03-13T08:55:02.783Z,2.47
2023-03-13T09:00:07.846Z,2.33
2023-03-13T09:05:11.303Z,1.20
2023-03-13T09:10:15.909Z,0.70
2023-03-13T09:15:19.314Z,1.77
2023-03-13T09:20:22.963Z,0.83
2023-03-13T09:25:27.620Z,2.27
2023-03-13T09:30:30.744Z,0.60
2023-03-13T09:35:33.999Z,3.67
2023-03-13T09:40:59.824Z,4.40
2023-03-13T09:46:16.608Z,3.10
2023-03-13T09:51:25.453Z,2.50
2023-03-13T09:56:35.389Z,2.17
2023-03-13T10:01:42.575Z,1.67
2023-03-13T10:06:48.214Z,3.07
2023-03-13T10:12:02.441Z,4.10
2023-03-13T10:17:11.271Z,2.63
2023-03-13T10:22:18.531Z,1.97
2023-03-13T10:27:23.384Z,1.07
2023-03-13T10:32:28.314Z,1.43
2023-03-13T10:37:33.627Z,3.00
2023-03-13T10:42:44.682Z,3.23
2023-03-13T10:47:55.734Z,2.10
2023-03-13T10:52:59.439Z,0.87
2023-03-13T10:58:05.992Z,1.17
2023-03-13T11:03:18.656Z,1.10
2023-03-13T11:08:24.612Z,1.20
2023-03-13T11:13:37.850Z,1.37
2023-03-13T11:18:48.296Z,1.97
2023-03-13T11:23:58.039Z,0.67
2023-03-13T11:29:10.175Z,0.80
2023-03-13T11:34:23.962Z,0.80
2023-03-13T11:39:48.737Z,0.60
2023-03-13T11:45:01.606Z,0.50
2023-03-13T11:50:24.320Z,0.57
2023-03-13T11:55:37.072Z,0.63
2023-03-13T12:00:46.194Z,0.30
2023-03-13T12:05:53.540Z,0.30
2023-03-13T12:11:08.348Z,0.23
2023-03-13T12:16:17.032Z,0.60
2023-03-13T12:21:24.516Z,2.07
2023-03-13T12:26:36.564Z,1.80
2023-03-13T12:31:47.037Z,1.27
2023-03-13T12:36:53.832Z,1.23
2023-03-13T12:42:10.303Z,2.10
2023-03-13T12:47:20.463Z,1.00
2023-03-13T12:52:59.501Z,1.53
2023-03-13T12:58:19.359Z,0.80
2023-03-13T13:03:31.604Z,0.80
2023-03-13T13:08:38.642Z,0.70
2023-03-13T13:13:42.026Z,0.83
2023-03-13T13:18:47.481Z,1.00
2023-03-13T13:23:53.987Z,1.30
2023-03-13T13:28:58.685Z,0.60
2023-03-13T13:34:03.807Z,0.50
2023-03-13T13:39:31.663Z,0.50
2023-03-13T13:44:35.588Z,0.50
2023-03-13T13:49:56.592Z,0.30
2023-03-13T13:55:00.198Z,1.17
2023-03-13T14:00:20.136Z,0.40
2023-03-13T14:05:28.177Z,0.60
2023-03-13T14:10:38.736Z,0.30
2023-03-13T14:15:47.167Z,0.30
2023-03-13T14:21:00.709Z,0.20
2023-03-13T14:26:16.423Z,0.30
2023-03-13T14:31:27.374Z,0.30
2023-03-13T14:36:46.247Z,0.30
2023-03-13T14:41:52.093Z,0.30
2023-03-13T14:46:57.614Z,0.30
2023-03-13T14:52:05.376Z,0.20
2023-03-13T14:57:17.759Z,0.30
2023-03-13T15:02:24.193Z,0.30
2023-03-13T15:07:36.430Z,0.23
2023-03-13T15:12:44.609Z,0.20
2023-03-13T15:17:48.129Z,0.20
2023-03-13T15:22:52.905Z,0.20
2023-03-13T15:27:56.252Z,1.47
2023-03-13T15:32:59.545Z,1.80
2023-03-13T15:38:04.716Z,1.00
2023-03-13T15:43:08.294Z,0.40
2023-03-13T15:48:18.344Z,0.40
2023-03-13T15:53:25.236Z,0.30
2023-03-13T15:58:29.527Z,0.37
2023-03-13T16:03:32.951Z,0.30
2023-03-13T16:08:37.860Z,0.60
2023-03-13T16:13:41.108Z,0.37
2023-03-13T16:18:44.411Z,0.37
2023-03-13T16:23:49.670Z,1.43
2023-03-13T16:28:54.438Z,0.57
2023-03-13T16:33:59.444Z,0.40
2023-03-13T16:39:08.942Z,0.87
2023-03-13T16:44:12.447Z,1.07
2023-03-13T16:49:16.569Z,0.73
2023-03-13T16:54:21.487Z,0.40
2023-03-13T16:59:25.593Z,0.70
2023-03-13T17:04:29.195Z,0.43
2023-03-13T17:09:34.168Z,0.43
2023-03-13T17:14:37.680Z,0.63
2023-03-13T17:19:41.204Z,0.47
2023-03-13T17:24:46.122Z,0.53
2023-03-13T17:29:50.582Z,0.30
2023-03-13T17:34:54.378Z,0.43
2023-03-13T17:40:00.195Z,1.03
2023-03-13T17:45:03.546Z,0.50
2023-03-13T17:50:20.060Z,1.13
2023-03-13T17:55:25.722Z,0.40
2023-03-13T18:00:32.085Z,1.00
2023-03-13T18:05:35.534Z,1.10
2023-03-13T18:10:40.543Z,0.73
2023-03-13T18:15:43.765Z,1.30
2023-03-13T18:20:47.626Z,1.27
2023-03-13T18:25:52.402Z,1.10
2023-03-13T18:30:55.846Z,0.87
2023-03-13T18:35:59.358Z,1.50
2023-03-13T18:41:04.237Z,2.00
2023-03-13T18:46:12.965Z,1.00
2023-03-13T18:51:17.559Z,2.00
2023-03-13T18:56:25.008Z,1.90
2023-03-13T19:01:30.552Z,2.97
2023-03-13T19:06:35.601Z,2.77
2023-03-13T19:11:40.729Z,2.03
2023-03-13T19:16:47.406Z,1.30
2023-03-13T19:21:52.390Z,1.00
2023-03-13T19:26:59.759Z,1.50
2023-03-13T19:32:06.992Z,3.17
2023-03-13T19:37:12.462Z,3.13
2023-03-13T19:42:17.425Z,1.83
2023-03-13T19:47:20.707Z,1.80
2023-03-13T19:52:24.105Z,1.07
2023-03-13T19:57:29.301Z,1.33
2023-03-13T20:02:33.381Z,1.10
2023-03-13T20:07:36.914Z,1.00
2023-03-13T20:12:42.438Z,1.67
2023-03-13T20:17:46.018Z,2.50
2023-03-13T20:22:50.386Z,0.70
2023-03-13T20:27:55.374Z,1.00
2023-03-13T20:33:00.094Z,0.90
2023-03-13T20:38:05.053Z,1.03
2023-03-13T20:43:10.211Z,0.43
2023-03-13T20:48:13.686Z,0.87
2023-03-13T20:53:17.372Z,1.07
2023-03-13T20:58:22.484Z,1.43
2023-03-13T21:03:26.007Z,0.90
2023-03-13T21:08:30.660Z,1.43
2023-03-13T21:13:36.132Z,0.63
2023-03-13T21:18:39.569Z,0.50
2023-03-13T21:23:42.972Z,0.53
2023-03-13T21:28:47.942Z,0.37
2023-03-13T21:33:52.192Z,0.63
2023-03-13T21:38:55.613Z,0.60
2023-03-13T21:44:01.915Z,1.23
2023-03-13T21:49:05.310Z,2.47
2023-03-13T21:54:08.941Z,0.97
2023-03-13T21:59:13.892Z,0.90
2023-03-13T22:04:17.096Z,0.77
2023-03-13T22:09:20.684Z,0.90
2023-03-13T22:14:27.915Z,2.83
2023-03-13T22:19:31.257Z,1.50
2023-03-13T22:24:37.344Z,0.60
2023-03-13T22:29:42.403Z,1.07
2023-03-13T22:34:48.029Z,0.83
2023-03-13T22:39:53.991Z,1.27
2023-03-13T22:44:59.132Z,2.03
2023-03-13T22:50:02.912Z,0.97
2023-03-13T22:55:06.777Z,1.40
2023-03-13T23:00:12.999Z,0.93
2023-03-13T23:05:16.527Z,0.77
2023-03-13T23:10:20.759Z,0.60
2023-03-13T23:15:26.544Z,0.73
2023-03-13T23:20:33.229Z,0.90
2023-03-13T23:25:36.459Z,0.40
2023-03-13T23:30:41.106Z,0.60
2023-03-13T23:35:45.186Z,0.40
2023-03-13T23:40:48.487Z,0.40
2023-03-13T23:45:53.421Z,0.53
2023-03-13T23:50:57.024Z,0.40
2023-03-13T23:56:01.528Z,0.63
